Deva — A8OK3 — position and weather

sailwx.info

Track history (hours):
 
Tides and Currents Weather Stations Pressure Air Temp Water Temp Dewpoint Dewpoint Depression Visibility Wind Speed Wind Dir Waves Ship Positions

Deva

Last reported at 2014-Jul-29 02:08 UTC. Time now 2014-Jul-29 06:51 UTC.
Position N 35°35' E 016°05'.

Length 259 m; draft 10.8 m.

Type: Ship (hazmat cat A). MMSI: 636013644.

Date/timePositionNaut miles runAvg speedWind from/ knotsBaromVisibWave heightAir tempDewpointWater temp
2014-Jul-29 02:08N 35°35' E 016°05'1220.2
2014-Jul-29 01:33N 35°37' E 015°51'2020.3
2014-Jul-29 00:34N 35°40' E 015°26'2020.3
2014-Jul-28 23:34N 35°42' E 015°02'2020.3
2014-Jul-28 22:34N 35°47' E 014°37'5 4.4
2014-Jul-28 21:31N 35°49' E 014°32'0 0.0
2014-Jul-28 20:31N 35°49' E 014°32'0 0.0
2014-Jul-28 19:34N 35°49' E 014°32'0 0.0
2014-Jul-28 18:34N 35°49' E 014°32'0 0.0
2014-Jul-28 17:34N 35°49' E 014°32'0 0.0
2014-Jul-28 16:33N 35°49' E 014°32'0 0.0
2014-Jul-28 15:33N 35°49' E 014°32'0 0.0
2014-Jul-28 14:33N 35°49' E 014°32'0 0.0
2014-Jul-28 13:29N 35°49' E 014°32'0 0.0
2014-Jul-28 12:34N 35°49' E 014°32'0 0.0
2014-Jul-28 11:34N 35°49' E 014°32'0 0.0
2014-Jul-28 10:33N 35°49' E 014°32'0 0.0
2014-Jul-28 09:34N 35°49' E 014°32'0 0.0
2014-Jul-28 08:33N 35°49' E 014°32'0 0.0
2014-Jul-28 07:34N 35°49' E 014°32'0 0.0
2014-Jul-28 06:33N 35°49' E 014°32'0 0.3
2014-Jul-28 05:34N 35°49' E 014°32'4 4.0
2014-Jul-28 04:34N 35°45' E 014°31'1515.1
2014-Jul-28 03:33N 35°51' E 014°14'1616.3
2014-Jul-28 02:33N 35°60' E 013°57'1616.3
2014-Jul-28 01:33N 36°08' E 013°40'1615.9
2014-Jul-28 00:34N 36°16' E 013°23'1616.4
2014-Jul-27 23:33N 36°25' E 013°06'1616.5
2014-Jul-27 22:34N 36°34' E 012°48'1816.7
2014-Jul-27 21:30N 36°43' E 012°29'3616.5
2014-Jul-27 19:21N 37°02' E 011°51'7816.3
2014-Jul-27 14:33N 37°33' E 010°21'1616.2
2014-Jul-27 13:34N 37°33' E 010°01'1816.4
2014-Jul-27 12:26N 37°29' E 009°39'2216.6
2014-Jul-27 11:08N 37°24' E 009°12'10916.3
2014-Jul-27 04:26N 37°16' E 006°55'2016.2
2014-Jul-27 03:12N 37°16' E 006°30'1016.3
2014-Jul-27 02:33N 37°15' E 006°17'1616.3
2014-Jul-27 01:33N 37°14' E 005°57'1616.2
2014-Jul-27 00:33N 37°13' E 005°36'2315.9
2014-Jul-26 23:05N 37°11' E 005°07'2716.3
2014-Jul-26 21:27N 37°10' E 004°34'1516.3
2014-Jul-26 20:33N 37°09' E 004°15'1616.5
2014-Jul-26 19:33N 37°08' E 003°55'3716.2
2014-Jul-26 17:17N 37°03' E 003°09'1516.1
2014-Jul-26 16:22N 36°60' E 002°51'1316.6
2014-Jul-26 15:33N 36°56' E 002°35'23016.3
2014-Jul-26 01:29N 36°22' W 002°09'16216.4
2014-Jul-25 15:33N 35°57' W 005°28'2116.8
2014-Jul-25 14:19N 35°55' W 005°53'1316.4
2014-Jul-25 13:32N 35°54' W 006°09'3316.5
2014-Jul-25 11:33N 36°01' W 006°48'2316.5
2014-Jul-25 10:10N 36°08' W 007°16'2616.3
2014-Jul-25 08:33N 36°14' W 007°47'3316.4
2014-Jul-25 06:33N 36°23' W 008°26'1816.5
2014-Jul-25 05:28N 36°28' W 008°48'1516.1
2014-Jul-25 04:33N 36°32' W 009°06'3115.4
2014-Jul-25 02:31N 36°52' W 009°35'1716.3
2014-Jul-25 01:29N 37°09' W 009°39'1515.9
2014-Jul-25 00:31N 37°24' W 009°44'1616.4
2014-Jul-24 23:33N 37°39' W 009°48'1716.5
2014-Jul-24 22:33N 37°55' W 009°52'3816.5
2014-Jul-24 20:15N 38°32' W 010°03'1216.4
2014-Jul-24 19:33N 38°44' W 010°06'1816.7
2014-Jul-24 18:28N 39°02' W 010°08'43216.1
2014-Jul-23 15:33N 46°04' W 008°02'1616.5
2014-Jul-23 14:33N 46°19' W 007°52'1616.3
2014-Jul-23 13:33N 46°33' W 007°41'14916.5
2014-Jul-23 04:30N 48°44' W 005°56'1616.0
2014-Jul-23 03:28N 48°57' W 005°40'1516.8
2014-Jul-23 02:33N 49°05' W 005°19'1616.4
2014-Jul-23 01:33N 49°13' W 004°58'1616.4
2014-Jul-23 00:33N 49°22' W 004°37'16816.2
2014-Jul-22 14:14N 50°24' W 000°35'1115.9
2014-Jul-22 13:33N 50°27' W 000°19'1716.1
2014-Jul-22 12:29N 50°32' E 000°07'1516.2
2014-Jul-22 11:33N 50°35' E 000°30'1716.8
2014-Jul-22 10:33N 50°45' E 000°52'1716.5
2014-Jul-22 09:33N 50°55' E 001°13'1616.5
2014-Jul-22 08:33N 51°06' E 001°32'1616.3
2014-Jul-22 07:34N 51°18' E 001°51'1313.4
2014-Jul-22 06:34N 51°22' E 002°11'1616.0
2014-Jul-22 05:34N 51°23' E 002°36'1514.8
2014-Jul-22 04:34N 51°25' E 002°60'1716.6
2014-Jul-22 03:34N 51°25' E 003°27'1111.3
2014-Jul-22 02:33N 51°22' E 003°44'1111.4
2014-Jul-22 01:34N 51°23' E 004°03'10 9.8
2014-Jul-22 00:34N 51°18' E 004°16'0 0.4
2014-Jul-21 23:32N 51°18' E 004°15'0 0.0
2014-Jul-21 22:32N 51°18' E 004°15'0 0.0
2014-Jul-21 21:32N 51°18' E 004°15'0 0.0
2014-Jul-21 20:29N 51°18' E 004°15'0 0.0
2014-Jul-21 20:17N 51°18' E 004°15'0 0.0
2014-Jul-21 19:32N 51°18' E 004°15'0 0.0
2014-Jul-21 18:32N 51°18' E 004°15'0 0.0
2014-Jul-21 17:32N 51°18' E 004°15'0 0.0
2014-Jul-21 16:32N 51°18' E 004°15'0 0.0
2014-Jul-21 15:32N 51°18' E 004°15'0 0.0
2014-Jul-21 14:32N 51°18' E 004°15'0 0.0
2014-Jul-21 13:32N 51°18' E 004°15'0 0.0
2014-Jul-21 12:32N 51°18' E 004°15'0 0.0
2014-Jul-21 11:32N 51°18' E 004°15'0 0.0
2014-Jul-21 10:32N 51°18' E 004°15'0 0.0
2014-Jul-21 09:33N 51°18' E 004°16'6 6.5
2014-Jul-21 08:33N 51°22' E 004°09'1211.8
2014-Jul-21 07:34N 51°21' E 003°50'1212.1
2014-Jul-21 06:33N 51°25' E 003°32'1817.5
2014-Jul-21 05:33N 51°24' E 003°04'1313.4
2014-Jul-21 04:33N 51°37' E 003°10'1212.4
2014-Jul-21 03:34N 51°49' E 003°16'1615.6
2014-Jul-21 02:33N 52°04' E 003°21'1918.5
2014-Jul-21 01:34N 52°23' E 003°26'2120.7
2014-Jul-21 00:33N 52°42' E 003°38'2420.9
2014-Jul-20 23:23N 53°01' E 004°04'1820.2
2014-Jul-20 22:29N 53°14' E 004°25'1820.1
2014-Jul-20 21:34N 53°29' E 004°42'2221.8
2014-Jul-20 20:34N 53°38' E 005°16'2222.4
2014-Jul-20 19:34N 53°45' E 005°52'2221.8
2014-Jul-20 18:34N 53°51' E 006°27'2221.3
2014-Jul-20 17:33N 53°55' E 007°03'2020.7
2014-Jul-20 16:33N 53°59' E 007°37'1615.3
2014-Jul-20 15:31N 53°51' E 008°01'1414.5
2014-Jul-20 14:33N 53°43' E 008°19'10 9.8
2014-Jul-20 13:31N 53°36' E 008°31'0 0.0
2014-Jul-20 12:31N 53°36' E 008°31'0 0.0
2014-Jul-20 11:31N 53°36' E 008°31'0 0.0
2014-Jul-20 10:31N 53°36' E 008°31'0 0.0
2014-Jul-20 09:31N 53°36' E 008°31'0 0.0
2014-Jul-20 08:31N 53°36' E 008°31'0 0.0
2014-Jul-20 07:31N 53°36' E 008°31'0 0.0
2014-Jul-20 06:31N 53°36' E 008°31'0 0.0
2014-Jul-20 05:31N 53°36' E 008°31'0 0.0
2014-Jul-20 04:31N 53°36' E 008°31'0 0.0
2014-Jul-20 03:31N 53°36' E 008°31'0 0.0
2014-Jul-20 02:31N 53°36' E 008°31'0 0.0
2014-Jul-20 01:31N 53°36' E 008°31'0 0.0
2014-Jul-20 00:31N 53°36' E 008°31'0 0.0
2014-Jul-19 23:31N 53°36' E 008°31'0 0.0
2014-Jul-19 22:31N 53°36' E 008°31'0 0.0
2014-Jul-19 21:31N 53°36' E 008°31'0 0.0
2014-Jul-19 20:31N 53°36' E 008°31'1 0.8
2014-Jul-19 19:33N 53°36' E 008°30'1211.9
2014-Jul-19 18:33N 53°44' E 008°15'1414.2
2014-Jul-19 17:33N 53°52' E 007°55'6 0.9
2014-Jul-19 11:26N 53°55' E 007°47'0 0.0
2014-Jul-19 10:26N 53°55' E 007°47'0 0.0
2014-Jul-19 09:32N 53°55' E 007°47'0 0.0
2014-Jul-19 08:32N 53°55' E 007°47'0 0.0
2014-Jul-19 07:23N 53°55' E 007°47'0 0.0
2014-Jul-19 06:32N 53°55' E 007°47'0 0.0
2014-Jul-19 05:32N 53°55' E 007°47'0 0.0
2014-Jul-19 04:32N 53°55' E 007°47'0 0.0
2014-Jul-19 03:32N 53°55' E 007°47'0 0.2
2014-Jul-19 02:29N 53°55' E 007°48'  
Track history (hours):
 
Tides and Currents Weather Stations Pressure Air Temp Water Temp Dewpoint Dewpoint Depression Visibility Wind Speed Wind Dir Waves Ship Positions

Deva

Last reported at 2014-Jul-29 02:08 UTC. Time now 2014-Jul-29 06:51 UTC.
Position N 35°35' E 016°05'.

Length 259 m; draft 10.8 m.

Type: Ship (hazmat cat A). MMSI: 636013644.

Date/timePositionNaut miles runAvg speedWind from/ knotsBaromVisibWave heightAir tempDewpointWater temp
2014-Jul-29 02:08N 35°35' E 016°05'1220.2
2014-Jul-29 01:33N 35°37' E 015°51'2020.3
2014-Jul-29 00:34N 35°40' E 015°26'2020.3
2014-Jul-28 23:34N 35°42' E 015°02'2020.3
2014-Jul-28 22:34N 35°47' E 014°37'5 4.4
2014-Jul-28 21:31N 35°49' E 014°32'0 0.0
2014-Jul-28 20:31N 35°49' E 014°32'0 0.0
2014-Jul-28 19:34N 35°49' E 014°32'0 0.0
2014-Jul-28 18:34N 35°49' E 014°32'0 0.0
2014-Jul-28 17:34N 35°49' E 014°32'0 0.0
2014-Jul-28 16:33N 35°49' E 014°32'0 0.0
2014-Jul-28 15:33N 35°49' E 014°32'0 0.0
2014-Jul-28 14:33N 35°49' E 014°32'0 0.0
2014-Jul-28 13:29N 35°49' E 014°32'0 0.0
2014-Jul-28 12:34N 35°49' E 014°32'0 0.0
2014-Jul-28 11:34N 35°49' E 014°32'0 0.0
2014-Jul-28 10:33N 35°49' E 014°32'0 0.0
2014-Jul-28 09:34N 35°49' E 014°32'0 0.0
2014-Jul-28 08:33N 35°49' E 014°32'0 0.0
2014-Jul-28 07:34N 35°49' E 014°32'0 0.0
2014-Jul-28 06:33N 35°49' E 014°32'0 0.3
2014-Jul-28 05:34N 35°49' E 014°32'4 4.0
2014-Jul-28 04:34N 35°45' E 014°31'1515.1
2014-Jul-28 03:33N 35°51' E 014°14'1616.3
2014-Jul-28 02:33N 35°60' E 013°57'1616.3
2014-Jul-28 01:33N 36°08' E 013°40'1615.9
2014-Jul-28 00:34N 36°16' E 013°23'1616.4
2014-Jul-27 23:33N 36°25' E 013°06'1616.5
2014-Jul-27 22:34N 36°34' E 012°48'1816.7
2014-Jul-27 21:30N 36°43' E 012°29'3616.5
2014-Jul-27 19:21N 37°02' E 011°51'7816.3
2014-Jul-27 14:33N 37°33' E 010°21'1616.2
2014-Jul-27 13:34N 37°33' E 010°01'1816.4
2014-Jul-27 12:26N 37°29' E 009°39'2216.6
2014-Jul-27 11:08N 37°24' E 009°12'10916.3
2014-Jul-27 04:26N 37°16' E 006°55'2016.2
2014-Jul-27 03:12N 37°16' E 006°30'1016.3
2014-Jul-27 02:33N 37°15' E 006°17'1616.3
2014-Jul-27 01:33N 37°14' E 005°57'1616.2
2014-Jul-27 00:33N 37°13' E 005°36'2315.9
2014-Jul-26 23:05N 37°11' E 005°07'2716.3
2014-Jul-26 21:27N 37°10' E 004°34'1516.3
2014-Jul-26 20:33N 37°09' E 004°15'1616.5
2014-Jul-26 19:33N 37°08' E 003°55'3716.2
2014-Jul-26 17:17N 37°03' E 003°09'1516.1
2014-Jul-26 16:22N 36°60' E 002°51'1316.6
2014-Jul-26 15:33N 36°56' E 002°35'23016.3
2014-Jul-26 01:29N 36°22' W 002°09'16216.4
2014-Jul-25 15:33N 35°57' W 005°28'2116.8
2014-Jul-25 14:19N 35°55' W 005°53'1316.4
2014-Jul-25 13:32N 35°54' W 006°09'3316.5
2014-Jul-25 11:33N 36°01' W 006°48'2316.5
2014-Jul-25 10:10N 36°08' W 007°16'2616.3
2014-Jul-25 08:33N 36°14' W 007°47'3316.4
2014-Jul-25 06:33N 36°23' W 008°26'1816.5
2014-Jul-25 05:28N 36°28' W 008°48'1516.1
2014-Jul-25 04:33N 36°32' W 009°06'3115.4
2014-Jul-25 02:31N 36°52' W 009°35'1716.3
2014-Jul-25 01:29N 37°09' W 009°39'1515.9
2014-Jul-25 00:31N 37°24' W 009°44'1616.4
2014-Jul-24 23:33N 37°39' W 009°48'1716.5
2014-Jul-24 22:33N 37°55' W 009°52'3816.5
2014-Jul-24 20:15N 38°32' W 010°03'1216.4
2014-Jul-24 19:33N 38°44' W 010°06'1816.7
2014-Jul-24 18:28N 39°02' W 010°08'43216.1
2014-Jul-23 15:33N 46°04' W 008°02'1616.5
2014-Jul-23 14:33N 46°19' W 007°52'1616.3
2014-Jul-23 13:33N 46°33' W 007°41'14916.5
2014-Jul-23 04:30N 48°44' W 005°56'1616.0
2014-Jul-23 03:28N 48°57' W 005°40'1516.8
2014-Jul-23 02:33N 49°05' W 005°19'1616.4
2014-Jul-23 01:33N 49°13' W 004°58'1616.4
2014-Jul-23 00:33N 49°22' W 004°37'16816.2
2014-Jul-22 14:14N 50°24' W 000°35'1115.9
2014-Jul-22 13:33N 50°27' W 000°19'1716.1
2014-Jul-22 12:29N 50°32' E 000°07'1516.2
2014-Jul-22 11:33N 50°35' E 000°30'1716.8
2014-Jul-22 10:33N 50°45' E 000°52'1716.5
2014-Jul-22 09:33N 50°55' E 001°13'1616.5
2014-Jul-22 08:33N 51°06' E 001°32'1616.3
2014-Jul-22 07:34N 51°18' E 001°51'1313.4
2014-Jul-22 06:34N 51°22' E 002°11'1616.0
2014-Jul-22 05:34N 51°23' E 002°36'1514.8
2014-Jul-22 04:34N 51°25' E 002°60'1716.6
2014-Jul-22 03:34N 51°25' E 003°27'1111.3
2014-Jul-22 02:33N 51°22' E 003°44'1111.4
2014-Jul-22 01:34N 51°23' E 004°03'10 9.8
2014-Jul-22 00:34N 51°18' E 004°16'0 0.4
2014-Jul-21 23:32N 51°18' E 004°15'0 0.0
2014-Jul-21 22:32N 51°18' E 004°15'0 0.0
2014-Jul-21 21:32N 51°18' E 004°15'0 0.0
2014-Jul-21 20:29N 51°18' E 004°15'0 0.0
2014-Jul-21 20:17N 51°18' E 004°15'0 0.0
2014-Jul-21 19:32N 51°18' E 004°15'0 0.0
2014-Jul-21 18:32N 51°18' E 004°15'0 0.0
2014-Jul-21 17:32N 51°18' E 004°15'0 0.0
2014-Jul-21 16:32N 51°18' E 004°15'0 0.0
2014-Jul-21 15:32N 51°18' E 004°15'0 0.0
2014-Jul-21 14:32N 51°18' E 004°15'0 0.0
2014-Jul-21 13:32N 51°18' E 004°15'0 0.0
2014-Jul-21 12:32N 51°18' E 004°15'0 0.0
2014-Jul-21 11:32N 51°18' E 004°15'0 0.0
2014-Jul-21 10:32N 51°18' E 004°15'0 0.0
2014-Jul-21 09:33N 51°18' E 004°16'6 6.5
2014-Jul-21 08:33N 51°22' E 004°09'1211.8
2014-Jul-21 07:34N 51°21' E 003°50'1212.1
2014-Jul-21 06:33N 51°25' E 003°32'1817.5
2014-Jul-21 05:33N 51°24' E 003°04'1313.4
2014-Jul-21 04:33N 51°37' E 003°10'1212.4
2014-Jul-21 03:34N 51°49' E 003°16'1615.6
2014-Jul-21 02:33N 52°04' E 003°21'1918.5
2014-Jul-21 01:34N 52°23' E 003°26'2120.7
2014-Jul-21 00:33N 52°42' E 003°38'2420.9
2014-Jul-20 23:23N 53°01' E 004°04'1820.2
2014-Jul-20 22:29N 53°14' E 004°25'1820.1
2014-Jul-20 21:34N 53°29' E 004°42'2221.8
2014-Jul-20 20:34N 53°38' E 005°16'2222.4
2014-Jul-20 19:34N 53°45' E 005°52'2221.8
2014-Jul-20 18:34N 53°51' E 006°27'2221.3
2014-Jul-20 17:33N 53°55' E 007°03'2020.7
2014-Jul-20 16:33N 53°59' E 007°37'1615.3
2014-Jul-20 15:31N 53°51' E 008°01'1414.5
2014-Jul-20 14:33N 53°43' E 008°19'10 9.8
2014-Jul-20 13:31N 53°36' E 008°31'0 0.0
2014-Jul-20 12:31N 53°36' E 008°31'0 0.0
2014-Jul-20 11:31N 53°36' E 008°31'0 0.0
2014-Jul-20 10:31N 53°36' E 008°31'0 0.0
2014-Jul-20 09:31N 53°36' E 008°31'0 0.0
2014-Jul-20 08:31N 53°36' E 008°31'0 0.0
2014-Jul-20 07:31N 53°36' E 008°31'0 0.0
2014-Jul-20 06:31N 53°36' E 008°31'0 0.0
2014-Jul-20 05:31N 53°36' E 008°31'0 0.0
2014-Jul-20 04:31N 53°36' E 008°31'0 0.0
2014-Jul-20 03:31N 53°36' E 008°31'0 0.0
2014-Jul-20 02:31N 53°36' E 008°31'0 0.0
2014-Jul-20 01:31N 53°36' E 008°31'0 0.0
2014-Jul-20 00:31N 53°36' E 008°31'0 0.0
2014-Jul-19 23:31N 53°36' E 008°31'0 0.0
2014-Jul-19 22:31N 53°36' E 008°31'0 0.0
2014-Jul-19 21:31N 53°36' E 008°31'0 0.0
2014-Jul-19 20:31N 53°36' E 008°31'1 0.8
2014-Jul-19 19:33N 53°36' E 008°30'1211.9
2014-Jul-19 18:33N 53°44' E 008°15'1414.2
2014-Jul-19 17:33N 53°52' E 007°55'6 0.9
2014-Jul-19 11:26N 53°55' E 007°47'0 0.0
2014-Jul-19 10:26N 53°55' E 007°47'0 0.0
2014-Jul-19 09:32N 53°55' E 007°47'0 0.0
2014-Jul-19 08:32N 53°55' E 007°47'0 0.0
2014-Jul-19 07:23N 53°55' E 007°47'0 0.0
2014-Jul-19 06:32N 53°55' E 007°47'0 0.0
2014-Jul-19 05:32N 53°55' E 007°47'0 0.0
2014-Jul-19 04:32N 53°55' E 007°47'0 0.0
2014-Jul-19 03:32N 53°55' E 007°47'0 0.2
2014-Jul-19 02:29N 53°55' E 007°48'  

Dump ship's entire track history